createdAt,value
2023-07-18T00:01:25.660Z,14.2
2023-07-18T00:03:33.754Z,14.1
2023-07-18T00:05:41.979Z,14.1
2023-07-18T00:07:50.500Z,14.1
2023-07-18T00:09:59.327Z,14.1
2023-07-18T00:12:07.763Z,14.1
2023-07-18T00:14:16.904Z,14.1
2023-07-18T00:16:24.823Z,14.1
2023-07-18T00:18:32.638Z,14.1
2023-07-18T00:20:40.371Z,14.1
2023-07-18T00:22:49.159Z,14.1
2023-07-18T00:24:57.064Z,14.1
2023-07-18T00:27:05.343Z,14
2023-07-18T00:29:13.102Z,14
2023-07-18T00:31:22.384Z,14
2023-07-18T00:33:30.303Z,14
2023-07-18T00:35:38.150Z,14
2023-07-18T00:37:45.546Z,14
2023-07-18T00:39:54.250Z,14
2023-07-18T00:42:02.941Z,14
2023-07-18T00:44:10.738Z,14
2023-07-18T00:46:19.703Z,14
2023-07-18T00:48:29.989Z,14
2023-07-18T00:50:38.878Z,14
2023-07-18T00:52:49.092Z,14.1
2023-07-18T00:54:55.971Z,14.1
2023-07-18T00:57:04.071Z,14.1
2023-07-18T00:59:14.482Z,14.1
2023-07-18T01:01:22.853Z,14.1
2023-07-18T01:03:32.474Z,14.1
2023-07-18T01:05:56.141Z,14.1
2023-07-18T01:08:04.379Z,14.1
2023-07-18T01:10:17.243Z,14.1
2023-07-18T01:12:25.051Z,14.2
2023-07-18T01:14:33.166Z,14.2
2023-07-18T01:16:42.588Z,14.2
2023-07-18T01:18:53.405Z,14.3
2023-07-18T01:21:03.026Z,14.3
2023-07-18T01:23:12.456Z,14.3
2023-07-18T01:25:20.745Z,14.4
2023-07-18T01:27:29.166Z,14.4
2023-07-18T01:29:37.066Z,14.4
2023-07-18T01:31:45.822Z,14.4
2023-07-18T01:33:54.054Z,14.4
2023-07-18T01:36:02.531Z,14.4
2023-07-18T01:38:11.861Z,14.4
2023-07-18T01:40:21.512Z,14.4
2023-07-18T01:42:29.360Z,14.4
2023-07-18T01:44:37.284Z,14.4
2023-07-18T01:46:45.119Z,14.4
2023-07-18T01:48:53.336Z,14.4
2023-07-18T01:51:01.070Z,14.4
2023-07-18T01:53:09.409Z,14.4
2023-07-18T01:55:17.860Z,14.4
2023-07-18T01:57:26.886Z,14.4
2023-07-18T01:59:34.703Z,14.3
2023-07-18T02:01:42.427Z,14.3
2023-07-18T02:03:50.667Z,14.3
2023-07-18T02:05:58.429Z,14.3
2023-07-18T02:08:06.498Z,14.3
2023-07-18T02:10:14.829Z,14.3
2023-07-18T02:12:24.204Z,14.3
2023-07-18T02:14:31.976Z,14.3
2023-07-18T02:16:39.883Z,14.3
2023-07-18T02:18:47.701Z,14.2
2023-07-18T02:20:55.422Z,14.2
2023-07-18T02:23:03.182Z,14.2
2023-07-18T02:25:11.509Z,14.1
2023-07-18T02:27:20.666Z,14.1
2023-07-18T02:29:29.764Z,14.1
2023-07-18T02:31:39.213Z,14.1
2023-07-18T02:33:46.991Z,14.1
2023-07-18T02:35:54.720Z,14
2023-07-18T02:38:02.561Z,14
2023-07-18T02:40:11.466Z,14
2023-07-18T02:42:19.428Z,14
2023-07-18T02:44:28.582Z,14
2023-07-18T02:46:36.404Z,13.9
2023-07-18T02:48:44.302Z,14
2023-07-18T02:50:52.161Z,13.9
2023-07-18T02:53:00.597Z,13.9
2023-07-18T02:55:09.300Z,13.9
2023-07-18T02:57:17.096Z,13.9
2023-07-18T02:59:24.852Z,13.9
2023-07-18T03:01:35.359Z,13.9
2023-07-18T03:03:43.319Z,13.8
2023-07-18T03:05:53.265Z,13.8
2023-07-18T03:08:01.120Z,13.8
2023-07-18T03:10:09.964Z,13.8
2023-07-18T03:12:17.719Z,13.8
2023-07-18T03:14:25.580Z,13.8
2023-07-18T03:16:34.828Z,13.7
2023-07-18T03:18:42.767Z,13.7
2023-07-18T03:20:50.945Z,13.7
2023-07-18T03:22:58.932Z,13.7
2023-07-18T03:25:08.164Z,13.7
2023-07-18T03:27:16.369Z,13.7
2023-07-18T03:29:24.123Z,13.8
2023-07-18T03:31:32.141Z,13.8
2023-07-18T03:33:41.453Z,13.8
2023-07-18T03:35:49.325Z,13.8
2023-07-18T03:37:57.112Z,13.7
2023-07-18T03:40:07.334Z,13.8
2023-07-18T03:42:15.142Z,13.8
2023-07-18T03:44:22.954Z,13.8
2023-07-18T03:46:29.739Z,13.8
2023-07-18T03:48:38.613Z,13.8
2023-07-18T03:50:47.671Z,13.8
2023-07-18T03:52:55.781Z,13.8
2023-07-18T03:55:04.269Z,13.8
2023-07-18T03:57:12.020Z,13.8
2023-07-18T03:59:19.733Z,13.9
2023-07-18T04:01:27.845Z,13.9
2023-07-18T04:03:35.859Z,13.9
2023-07-18T04:05:43.624Z,13.9
2023-07-18T04:07:52.662Z,13.9
2023-07-18T04:10:00.413Z,13.9
2023-07-18T04:12:09.021Z,14
2023-07-18T04:14:16.781Z,14
2023-07-18T04:16:27.141Z,14
2023-07-18T04:18:35.276Z,14.1
2023-07-18T04:20:42.970Z,14.1
2023-07-18T04:22:52.318Z,14.2
2023-07-18T04:24:59.371Z,14.2
2023-07-18T04:27:07.258Z,14.3
2023-07-18T04:29:15.015Z,14.3
2023-07-18T04:31:23.077Z,14.3
2023-07-18T04:33:36.554Z,14.4
2023-07-18T04:35:46.060Z,14.4
2023-07-18T04:37:55.113Z,14.5
2023-07-18T04:40:03.859Z,14.9
2023-07-18T04:42:12.517Z,15.2
2023-07-18T04:44:19.327Z,15.6
2023-07-18T04:46:27.390Z,16
2023-07-18T04:48:35.861Z,16.3
2023-07-18T04:50:44.160Z,16.5
2023-07-18T04:52:52.924Z,16.7
2023-07-18T04:55:02.167Z,16.8
2023-07-18T04:57:09.918Z,16.7
2023-07-18T04:59:17.644Z,16.7
2023-07-18T05:01:25.642Z,16.7
2023-07-18T05:03:41.180Z,16.6
2023-07-18T05:05:57.804Z,16.5
2023-07-18T05:08:06.601Z,16.3
2023-07-18T05:10:15.840Z,16.2
2023-07-18T05:12:23.660Z,16.1
2023-07-18T05:14:31.457Z,16
2023-07-18T05:16:39.240Z,16
2023-07-18T05:18:47.105Z,15.9
2023-07-18T05:20:56.072Z,15.9
2023-07-18T05:23:04.076Z,15.8
2023-07-18T05:25:14.241Z,15.8
2023-07-18T05:27:23.634Z,15.7
2023-07-18T05:29:31.360Z,15.7
2023-07-18T05:31:40.986Z,15.7
2023-07-18T05:33:49.972Z,15.7
2023-07-18T05:35:57.754Z,15.7
2023-07-18T05:38:05.580Z,15.7
2023-07-18T05:40:14.536Z,15.8
2023-07-18T05:42:24.046Z,15.8
2023-07-18T05:44:32.055Z,15.8
2023-07-18T05:46:41.381Z,15.9
2023-07-18T05:48:49.343Z,15.9
2023-07-18T05:50:57.660Z,15.9
2023-07-18T05:53:05.581Z,16
2023-07-18T05:55:14.933Z,16
2023-07-18T05:57:24.356Z,16
2023-07-18T05:59:32.666Z,16
2023-07-18T06:01:40.567Z,16.1
2023-07-18T06:03:48.911Z,16.2
2023-07-18T06:05:57.031Z,16.2
2023-07-18T06:08:06.657Z,16.3
2023-07-18T06:10:16.429Z,16.4
2023-07-18T06:12:25.717Z,16.5
2023-07-18T06:14:33.712Z,16.6
2023-07-18T06:16:41.537Z,16.7
2023-07-18T06:18:49.594Z,16.7
2023-07-18T06:20:57.475Z,16.8
2023-07-18T06:23:05.474Z,16.9
2023-07-18T06:25:15.345Z,16.9
2023-07-18T06:27:26.102Z,16.9
2023-07-18T06:29:35.246Z,17
2023-07-18T06:31:43.137Z,17.1
2023-07-18T06:33:51.116Z,17.2
2023-07-18T06:35:59.295Z,17.3
2023-07-18T06:38:07.250Z,17.4
2023-07-18T06:40:15.312Z,17.4
2023-07-18T06:42:23.129Z,17.3
2023-07-18T06:44:30.933Z,17.4
2023-07-18T06:46:41.911Z,17.5
2023-07-18T06:48:53.561Z,17.5
2023-07-18T06:51:03.378Z,17.6
2023-07-18T06:53:13.383Z,17.5
2023-07-18T06:55:21.365Z,17.5
2023-07-18T06:57:29.648Z,17.5
2023-07-18T06:59:37.563Z,17.5
2023-07-18T07:01:47.321Z,17.6
2023-07-18T07:03:57.254Z,17.7
2023-07-18T07:06:10.814Z,17.8
2023-07-18T07:08:20.633Z,17.7
2023-07-18T07:10:28.726Z,17.6
2023-07-18T07:12:37.639Z,17.6
2023-07-18T07:14:45.835Z,17.7
2023-07-18T07:16:56.056Z,17.7
2023-07-18T07:19:06.971Z,17.7
2023-07-18T07:21:14.778Z,17.9
2023-07-18T07:23:22.964Z,18.1
2023-07-18T07:25:32.422Z,18.4
2023-07-18T07:27:44.858Z,18.5
2023-07-18T07:29:53.563Z,18.5
2023-07-18T07:32:03.770Z,18.7
2023-07-18T07:34:11.712Z,18.8
2023-07-18T07:36:19.740Z,18.8
2023-07-18T07:38:28.277Z,18.9
2023-07-18T07:40:36.199Z,19
2023-07-18T07:42:46.653Z,19.1
2023-07-18T07:44:56.950Z,19.1
2023-07-18T07:47:06.667Z,19.2
2023-07-18T07:49:14.460Z,19.3
2023-07-18T07:51:23.272Z,19.2
2023-07-18T07:53:31.169Z,19.2
2023-07-18T07:55:40.515Z,19.3
2023-07-18T07:57:50.730Z,19.5
2023-07-18T07:59:57.565Z,19.6
2023-07-18T08:02:07.980Z,19.5
2023-07-18T08:04:15.870Z,19.5
2023-07-18T08:06:23.735Z,19.5
2023-07-18T08:08:32.104Z,19.6
2023-07-18T08:10:38.958Z,19.6
2023-07-18T08:12:46.823Z,19.6
2023-07-18T08:14:54.628Z,19.6
2023-07-18T08:17:04.756Z,19.5
2023-07-18T08:19:14.004Z,19.5
2023-07-18T08:21:21.978Z,19.4
2023-07-18T08:23:30.103Z,19.4
2023-07-18T08:25:38.415Z,19.5
2023-07-18T08:27:46.275Z,19.6
2023-07-18T08:30:02.226Z,19.8
2023-07-18T08:32:13.238Z,20
2023-07-18T08:34:22.535Z,20
2023-07-18T08:36:32.210Z,20.1
2023-07-18T08:38:40.111Z,20.1
2023-07-18T08:40:49.189Z,20.2
2023-07-18T08:42:57.023Z,20.2
2023-07-18T08:45:06.172Z,20.2
2023-07-18T08:47:14.682Z,20.4
2023-07-18T08:49:29.801Z,20.4
2023-07-18T08:51:37.985Z,20.5
2023-07-18T08:53:46.174Z,20.7
2023-07-18T08:55:54.595Z,21.1
2023-07-18T08:58:02.846Z,21.3
2023-07-18T09:00:12.885Z,21.4
2023-07-18T09:02:20.803Z,21.4
2023-07-18T09:04:29.978Z,21.5
2023-07-18T09:06:38.144Z,21.5
2023-07-18T09:08:46.417Z,21.4
2023-07-18T09:11:03.452Z,21.4
2023-07-18T09:13:11.321Z,21.5
2023-07-18T09:15:20.929Z,21.7
2023-07-18T09:17:29.723Z,21.8
2023-07-18T09:19:41.230Z,22
2023-07-18T09:21:49.569Z,22.1
2023-07-18T09:23:57.732Z,22.1
2023-07-18T09:26:09.613Z,22
2023-07-18T09:28:17.476Z,22.1
2023-07-18T09:30:29.300Z,22
2023-07-18T09:32:38.169Z,21.9
2023-07-18T09:34:55.281Z,21.7
2023-07-18T09:37:06.956Z,21.7
2023-07-18T09:39:15.359Z,21.8
2023-07-18T09:41:24.349Z,21.9
2023-07-18T09:43:32.043Z,21.9
2023-07-18T09:45:42.620Z,21.9
2023-07-18T09:47:53.657Z,21.9
2023-07-18T09:50:03.328Z,21.7
2023-07-18T09:52:11.829Z,21.7
2023-07-18T09:54:21.196Z,21.9
2023-07-18T09:56:33.066Z,22.1
2023-07-18T09:58:41.588Z,22.1
2023-07-18T10:00:50.363Z,22.1
2023-07-18T10:02:58.408Z,22.1
2023-07-18T10:05:11.614Z,22.2
2023-07-18T10:07:20.358Z,22.1
2023-07-18T10:09:29.020Z,22.1
2023-07-18T10:12:08.314Z,22
2023-07-18T10:14:17.239Z,21.6
2023-07-18T10:16:28.673Z,21.5
2023-07-18T10:18:45.646Z,21.5
2023-07-18T10:21:00.951Z,21.5
2023-07-18T10:23:11.209Z,21.4
2023-07-18T10:25:19.357Z,21.3
2023-07-18T10:27:36.948Z,21.2
2023-07-18T10:30:04.782Z,21.2
2023-07-18T10:32:13.560Z,21.2
2023-07-18T10:34:21.490Z,21.2
2023-07-18T10:36:31.360Z,21.3
2023-07-18T10:38:39.133Z,21.5
2023-07-18T10:40:47.379Z,21.5
2023-07-18T10:42:55.269Z,21.6
2023-07-18T10:45:06.082Z,21.5
2023-07-18T10:47:14.411Z,21.5
2023-07-18T10:49:26.598Z,21.4
2023-07-18T10:51:36.448Z,21.3
2023-07-18T10:53:45.485Z,21.2
2023-07-18T10:55:55.181Z,21.2
2023-07-18T10:58:02.916Z,21.1
2023-07-18T11:00:11.798Z,21
2023-07-18T11:02:20.677Z,20.9
2023-07-18T11:04:29.381Z,20.9
2023-07-18T11:06:38.576Z,20.9
2023-07-18T11:08:47.004Z,21
2023-07-18T11:10:56.310Z,21
2023-07-18T11:13:06.325Z,21.1
2023-07-18T11:15:14.662Z,21.1
2023-07-18T11:17:22.564Z,21.1
2023-07-18T11:19:32.447Z,20.9
2023-07-18T11:21:42.204Z,20.8
2023-07-18T11:23:50.397Z,20.7
2023-07-18T11:25:58.268Z,20.7
2023-07-18T11:28:06.830Z,20.7
2023-07-18T11:30:14.875Z,20.6
2023-07-18T11:32:34.516Z,20.6
2023-07-18T11:34:42.929Z,20.6
2023-07-18T11:36:54.953Z,20.6
2023-07-18T11:39:03.071Z,20.6
2023-07-18T11:41:31.725Z,20.6
2023-07-18T11:43:41.616Z,20.9
2023-07-18T11:45:49.434Z,21.6
2023-07-18T11:48:00.284Z,22
2023-07-18T11:50:10.983Z,22.3
2023-07-18T11:52:21.381Z,22.3
2023-07-18T11:54:28.481Z,22.4
2023-07-18T11:56:38.184Z,22.5
2023-07-18T11:58:45.965Z,22.4
2023-07-18T12:00:58.996Z,22.4
2023-07-18T12:03:07.074Z,22.7
2023-07-18T12:05:16.295Z,22.8
2023-07-18T12:07:25.775Z,22.8
2023-07-18T12:09:33.817Z,22.7
2023-07-18T12:11:42.242Z,22.7
2023-07-18T12:13:50.013Z,22.5
2023-07-18T12:15:59.915Z,22.5
2023-07-18T12:18:07.674Z,22.5
2023-07-18T12:20:15.591Z,22.5
2023-07-18T12:22:25.211Z,22.6
2023-07-18T12:24:33.304Z,22.8
2023-07-18T12:26:41.111Z,22.9
2023-07-18T12:28:48.869Z,22.9
2023-07-18T12:30:57.132Z,23
2023-07-18T12:33:05.113Z,23
2023-07-18T12:35:13.885Z,23
2023-07-18T12:37:21.669Z,23
2023-07-18T12:39:30.827Z,23.4
2023-07-18T12:41:38.851Z,23.6
2023-07-18T12:43:46.921Z,23.8
2023-07-18T12:45:55.620Z,23.8
2023-07-18T12:48:03.402Z,23.8
2023-07-18T12:50:12.869Z,23.7
2023-07-18T12:52:20.646Z,23.5
2023-07-18T12:54:29.920Z,23.5
2023-07-18T12:56:39.297Z,23.6
2023-07-18T12:58:47.089Z,23.7
2023-07-18T13:00:54.905Z,23.5
2023-07-18T13:03:02.816Z,23.4
2023-07-18T13:05:11.263Z,23.3
2023-07-18T13:07:25.426Z,23.3
2023-07-18T13:09:34.755Z,23.3
2023-07-18T13:11:42.538Z,23.6
2023-07-18T13:13:50.594Z,24
2023-07-18T13:15:58.498Z,24.2
2023-07-18T13:18:06.383Z,24.6
2023-07-18T13:20:14.854Z,24.9
2023-07-18T13:22:22.954Z,25.2
2023-07-18T13:24:30.789Z,25.1
2023-07-18T13:26:41.993Z,25
2023-07-18T13:28:51.692Z,24.8
2023-07-18T13:30:59.818Z,24.5
2023-07-18T13:33:07.648Z,24.3
2023-07-18T13:35:16.107Z,24.2
2023-07-18T13:37:24.068Z,24.3
2023-07-18T13:39:33.287Z,24.2
2023-07-18T13:41:44.633Z,24.5
2023-07-18T13:43:53.461Z,24.7
2023-07-18T13:46:01.866Z,25
2023-07-18T13:48:10.537Z,25.1
2023-07-18T13:52:39.704Z,25.6
2023-07-18T13:54:48.732Z,25.8
2023-07-18T13:56:58.183Z,25.9
2023-07-18T13:59:05.918Z,25.9
2023-07-18T14:01:14.029Z,25.9
2023-07-18T14:03:33.858Z,26
2023-07-18T14:05:44.703Z,26.1
2023-07-18T14:07:52.484Z,25.8
2023-07-18T14:10:00.590Z,25.4
2023-07-18T14:12:11.031Z,25.1
2023-07-18T14:14:18.832Z,25
2023-07-18T14:16:26.856Z,24.8
2023-07-18T14:18:35.980Z,24.8
2023-07-18T14:20:44.390Z,24.7
2023-07-18T14:22:52.923Z,24.5
2023-07-18T14:25:01.142Z,24.4
2023-07-18T14:27:10.330Z,24.1
2023-07-18T14:29:20.143Z,24.1
2023-07-18T14:31:28.204Z,24
2023-07-18T14:33:35.997Z,24.1
2023-07-18T14:35:44.307Z,24.2
2023-07-18T14:37:52.235Z,24.3
2023-07-18T14:40:03.654Z,24.7
2023-07-18T14:42:12.866Z,25
2023-07-18T14:44:20.601Z,25.2
2023-07-18T14:46:28.633Z,25.3
2023-07-18T14:48:37.052Z,25.4
2023-07-18T14:50:45.417Z,25.6
2023-07-18T14:52:53.218Z,25.6
2023-07-18T14:55:01.063Z,25.6
2023-07-18T14:57:09.046Z,25.6
2023-07-18T14:59:18.131Z,25.7
2023-07-18T15:01:25.372Z,25.8
2023-07-18T15:03:33.285Z,25.9
2023-07-18T15:05:41.884Z,25.9
2023-07-18T15:07:50.211Z,25.9
2023-07-18T15:09:59.251Z,25.9
2023-07-18T15:12:07.601Z,25.6
2023-07-18T15:14:16.891Z,25.4
2023-07-18T15:16:26.816Z,25.2
2023-07-18T15:18:34.846Z,24.9
2023-07-18T15:20:43.050Z,24.7
2023-07-18T15:22:52.687Z,24.5
2023-07-18T15:25:00.663Z,24.4
2023-07-18T15:27:08.681Z,24.2
2023-07-18T15:29:16.533Z,24.2
2023-07-18T15:31:26.727Z,24.4
2023-07-18T15:33:37.341Z,24.4
2023-07-18T15:35:46.141Z,24.2
2023-07-18T15:37:54.150Z,24
2023-07-18T15:40:03.134Z,23.8
2023-07-18T15:42:11.119Z,23.7
2023-07-18T15:46:39.148Z,23.7
2023-07-18T15:48:47.501Z,23.6
2023-07-18T15:50:55.456Z,23.5
2023-07-18T15:53:03.304Z,23.4
2023-07-18T15:55:11.190Z,23.3
2023-07-18T15:57:19.333Z,23.2
2023-07-18T15:59:27.460Z,23.1
2023-07-18T16:01:37.433Z,23
2023-07-18T16:03:45.792Z,22.8
2023-07-18T16:05:53.647Z,22.7
2023-07-18T16:08:02.293Z,22.5
2023-07-18T16:10:11.507Z,22.4
2023-07-18T16:12:19.918Z,22.3
2023-07-18T16:14:28.337Z,22.2
2023-07-18T16:16:37.801Z,22.1
2023-07-18T16:18:53.296Z,22
2023-07-18T16:21:01.728Z,22
2023-07-18T16:23:11.921Z,21.9
2023-07-18T16:25:20.790Z,21.8
2023-07-18T16:27:28.713Z,21.8
2023-07-18T16:29:36.628Z,21.7
2023-07-18T16:31:48.192Z,21.6
2023-07-18T16:33:56.090Z,21.5
2023-07-18T16:36:06.428Z,21.5
2023-07-18T16:38:14.178Z,21.5
2023-07-18T16:40:23.458Z,21.5
2023-07-18T16:42:34.333Z,21.4
2023-07-18T16:44:45.358Z,21.4
2023-07-18T16:46:54.999Z,21.4
2023-07-18T16:49:04.648Z,21.3
2023-07-18T16:51:14.155Z,21.3
2023-07-18T16:53:22.264Z,21.3
2023-07-18T16:55:30.549Z,21.2
2023-07-18T16:57:40.192Z,21.2
2023-07-18T16:59:47.907Z,21.2
2023-07-18T17:01:56.934Z,21.3
2023-07-18T17:04:05.140Z,21.3
2023-07-18T17:06:13.498Z,21.2
2023-07-18T17:08:21.457Z,21.2
2023-07-18T17:10:31.064Z,21.2
2023-07-18T17:12:38.922Z,21.2
2023-07-18T17:14:46.670Z,21.1
2023-07-18T17:16:54.440Z,21.1
2023-07-18T17:19:03.893Z,21.1
2023-07-18T17:21:12.297Z,21.1
2023-07-18T17:23:20.022Z,21
2023-07-18T17:25:28.704Z,21
2023-07-18T17:27:36.592Z,20.9
2023-07-18T17:29:44.403Z,20.9
2023-07-18T17:31:52.339Z,20.9
2023-07-18T17:34:03.041Z,20.8
2023-07-18T17:36:12.928Z,20.9
2023-07-18T17:38:21.715Z,20.9
2023-07-18T17:40:29.426Z,20.9
2023-07-18T17:42:37.214Z,20.9
2023-07-18T17:44:45.069Z,21
2023-07-18T17:46:52.921Z,21
2023-07-18T17:49:00.830Z,21
2023-07-18T17:51:08.569Z,21
2023-07-18T17:53:17.833Z,21
2023-07-18T17:55:25.844Z,21.1
2023-07-18T17:57:33.632Z,21.1
2023-07-18T17:59:42.684Z,21.2
2023-07-18T18:01:50.585Z,21.2
2023-07-18T18:03:58.788Z,21.2
2023-07-18T18:06:06.673Z,21.1
2023-07-18T18:08:15.183Z,21.1
2023-07-18T18:10:24.448Z,21
2023-07-18T18:12:33.079Z,20.9
2023-07-18T18:14:41.452Z,20.9
2023-07-18T18:16:49.403Z,20.8
2023-07-18T18:18:57.480Z,20.8
2023-07-18T18:21:05.614Z,20.7
2023-07-18T18:23:20.350Z,20.6
2023-07-18T18:25:34.509Z,20.5
2023-07-18T18:27:42.337Z,20.5
2023-07-18T18:29:50.121Z,20.4
2023-07-18T18:31:58.132Z,20.4
2023-07-18T18:34:05.990Z,20.3
2023-07-18T18:36:14.456Z,20.3
2023-07-18T18:38:22.280Z,20.3
2023-07-18T18:40:30.064Z,20.2
2023-07-18T18:42:39.242Z,20.2
2023-07-18T18:44:53.035Z,20.1
2023-07-18T18:47:01.304Z,20.1
2023-07-18T18:49:17.221Z,20.1
2023-07-18T18:51:34.491Z,20
2023-07-18T18:53:42.577Z,19.9
2023-07-18T18:55:50.544Z,19.9
2023-07-18T18:57:59.895Z,19.9
2023-07-18T19:00:09.640Z,19.8
2023-07-18T19:02:19.367Z,19.8
2023-07-18T19:04:27.237Z,19.7
2023-07-18T19:06:35.096Z,19.7
2023-07-18T19:08:42.856Z,19.7
2023-07-18T19:11:01.219Z,19.6
2023-07-18T19:13:16.881Z,19.6
2023-07-18T19:15:24.872Z,19.6
2023-07-18T19:17:33.116Z,19.5
2023-07-18T19:19:42.402Z,19.5
2023-07-18T19:21:50.265Z,19.5
2023-07-18T19:23:58.213Z,19.4
2023-07-18T19:26:06.203Z,19.4
2023-07-18T19:28:15.551Z,19.3
2023-07-18T19:30:23.613Z,19.3
2023-07-18T19:32:31.377Z,19.2
2023-07-18T19:34:39.459Z,19.2
2023-07-18T19:36:47.674Z,19.2
2023-07-18T19:38:58.410Z,19.2
2023-07-18T19:41:05.170Z,19.1
2023-07-18T19:43:13.042Z,19.1
2023-07-18T19:45:22.763Z,19
2023-07-18T19:47:31.860Z,19
2023-07-18T19:49:39.741Z,19
2023-07-18T19:51:47.528Z,18.9
2023-07-18T19:53:55.464Z,18.9
2023-07-18T19:56:03.592Z,18.8
2023-07-18T19:58:11.364Z,18.8
2023-07-18T20:00:19.348Z,18.7
2023-07-18T20:02:28.909Z,18.7
2023-07-18T20:04:38.021Z,18.7
2023-07-18T20:06:45.872Z,18.6
2023-07-18T20:08:53.584Z,18.6
2023-07-18T20:11:01.998Z,18.5
2023-07-18T20:13:10.753Z,18.5
2023-07-18T20:15:18.575Z,18.5
2023-07-18T20:17:27.664Z,18.4
2023-07-18T20:19:36.536Z,18.4
2023-07-18T20:21:46.958Z,18.3
2023-07-18T20:23:54.769Z,18.3
2023-07-18T20:26:03.102Z,18.3
2023-07-18T20:28:11.965Z,18.2
2023-07-18T20:30:20.979Z,18.2
2023-07-18T20:32:30.416Z,18.2
2023-07-18T20:34:40.356Z,18.2
2023-07-18T20:36:49.160Z,18.1
2023-07-18T20:38:56.944Z,18.1
2023-07-18T20:41:06.893Z,18.1
2023-07-18T20:43:17.197Z,18
2023-07-18T20:45:26.976Z,18
2023-07-18T20:47:36.420Z,17.9
2023-07-18T20:49:44.363Z,17.9
2023-07-18T20:51:52.169Z,17.9
2023-07-18T20:54:00.205Z,17.9
2023-07-18T20:56:07.999Z,17.8
2023-07-18T20:58:16.103Z,17.8
2023-07-18T21:00:25.000Z,17.8
2023-07-18T21:02:34.050Z,17.8
2023-07-18T21:04:43.352Z,17.8
2023-07-18T21:06:51.090Z,17.7
2023-07-18T21:09:01.049Z,17.7
2023-07-18T21:11:09.099Z,17.6
2023-07-18T21:13:16.843Z,17.6
2023-07-18T21:15:23.682Z,17.6
2023-07-18T21:17:31.389Z,17.6
2023-07-18T21:19:39.264Z,17.5
2023-07-18T21:21:48.713Z,17.5
2023-07-18T21:23:57.416Z,17.5
2023-07-18T21:26:05.239Z,17.5
2023-07-18T21:28:13.107Z,17.5
2023-07-18T21:30:21.001Z,17.4
2023-07-18T21:32:28.762Z,17.4
2023-07-18T21:34:36.859Z,17.4
2023-07-18T21:36:44.628Z,17.4
2023-07-18T21:38:53.686Z,17.4
2023-07-18T21:41:02.849Z,17.4
2023-07-18T21:43:11.063Z,17.4
2023-07-18T21:45:19.578Z,17.4
2023-07-18T21:47:27.469Z,17.4
2023-07-18T21:49:35.231Z,17.3
2023-07-18T21:51:43.373Z,17.3
2023-07-18T21:53:51.228Z,17.3
2023-07-18T21:56:02.378Z,17.3
2023-07-18T21:58:12.593Z,17.2
2023-07-18T22:00:20.444Z,17.2
2023-07-18T22:02:35.270Z,17.2
2023-07-18T22:04:42.249Z,17.2
2023-07-18T22:06:50.107Z,17.2
2023-07-18T22:09:09.368Z,17.2
2023-07-18T22:11:22.093Z,17.1
2023-07-18T22:13:33.884Z,17.1
2023-07-18T22:15:52.758Z,17.1
2023-07-18T22:18:12.319Z,17.1
2023-07-18T22:20:27.428Z,17.1
2023-07-18T22:22:41.102Z,17.1
2023-07-18T22:24:49.251Z,17.1
2023-07-18T22:26:59.568Z,17.1
2023-07-18T22:29:29.488Z,17.1
2023-07-18T22:31:36.316Z,17.1
2023-07-18T22:33:56.069Z,17.1
2023-07-18T22:36:05.947Z,17.1
2023-07-18T22:38:21.562Z,17.1
2023-07-18T22:40:29.374Z,17.1
2023-07-18T22:43:02.211Z,17
2023-07-18T22:45:06.102Z,17
2023-07-18T22:47:25.058Z,17
2023-07-18T22:49:32.976Z,17
2023-07-18T22:51:41.130Z,17
2023-07-18T22:53:49.147Z,17
2023-07-18T22:55:57.353Z,17
2023-07-18T22:58:06.967Z,17
2023-07-18T23:00:15.448Z,17
2023-07-18T23:02:24.194Z,17
2023-07-18T23:04:32.131Z,17
2023-07-18T23:06:40.077Z,17
2023-07-18T23:08:48.173Z,16.9
2023-07-18T23:10:55.978Z,16.9
2023-07-18T23:13:03.898Z,16.9
2023-07-18T23:15:14.305Z,16.9
2023-07-18T23:17:22.182Z,16.9
2023-07-18T23:19:30.233Z,16.9
2023-07-18T23:21:38.174Z,16.9
2023-07-18T23:23:45.907Z,16.8
2023-07-18T23:25:53.667Z,16.8
2023-07-18T23:28:01.377Z,16.7
2023-07-18T23:30:10.647Z,16.7
2023-07-18T23:32:19.797Z,16.7
2023-07-18T23:34:27.718Z,16.6
2023-07-18T23:36:35.512Z,16.6
2023-07-18T23:38:43.249Z,16.6
2023-07-18T23:40:50.972Z,16.6
2023-07-18T23:42:58.787Z,16.6
2023-07-18T23:45:07.586Z,16.6
2023-07-18T23:47:15.372Z,16.6
2023-07-18T23:49:24.589Z,16.6
2023-07-18T23:51:32.371Z,16.6
2023-07-18T23:53:40.121Z,16.6
2023-07-18T23:55:48.912Z,16.6
2023-07-18T23:57:56.804Z,16.6
